Terminal Aerodrome Forecast
Issued by NWS Charleston, WV

Home | Current Version | Previous Version | Text Only | Print | Product List | Glossary On
Versions: 1 2 3 4 5 6 7 8 9 10 11 12 13 14 15 16 17 18 19 20 21 22 23 24
000
FTUS41 KRLX 221100
TAFPKB
TAF
KPKB 221138Z 2212/2312 31005KT P6SM SCT015 BKN035
      TEMPO 2212/2213 BKN015 OVC025
     FM221300 31003KT P6SM BKN015
     FM221600 30005KT P6SM BKN025
     FM222000 31006KT P6SM SCT025
     FM230100 00000KT P6SM SCT035
     FM230600 00000KT P6SM SCT250
     FM230700 00000KT 5SM BR SCT250
     FM230900 00000KT 1/4SM FG VV001=

USA.gov is the U.S. government's official web portal to all federal, state and local government web resources and services.